Time;durP1;ratioP1;P1;durP2;ratioP2;P2;SDS_P1;SDS_P2;PMS_P1;PMS_P2;Temp;Humidity;BMP_temperature;BMP_pressure;BME280_temperature;BME280_humidity;BME280_pressure;Samples;Min_cycle;Max_cycle;Signal;HPM_P1;HPM_P2
2023/04/16 00:00:30;;;;;;;13.65;5.25;;;;;;;12.05;61.36;98929.50;5091751;28;20020;-75
2023/04/16 00:02:56;;;;;;;12.40;4.30;;;;;;;11.70;62.36;98922.50;5104009;28;20016;-74
2023/04/16 00:05:21;;;;;;;8.73;4.63;;;;;;;11.66;62.43;98927.22;5102254;28;20023;-75
2023/04/16 00:07:47;;;;;;;15.52;4.13;;;;;;;11.32;63.36;98924.59;5090525;28;20016;-75
2023/04/16 00:10:12;;;;;;;5.88;3.80;;;;;;;10.91;64.80;98921.75;5091623;28;20024;-74
2023/04/16 00:12:38;;;;;;;8.65;3.45;;;;;;;10.78;65.08;98928.50;5076993;28;20139;-75
2023/04/16 00:15:04;;;;;;;10.77;4.07;;;;;;;10.99;64.61;98939.59;5091550;28;20031;-74
2023/04/16 00:17:29;;;;;;;8.65;4.15;;;;;;;10.81;65.60;98948.22;5073240;28;20472;-74
2023/04/16 00:19:55;;;;;;;11.32;5.65;;;;;;;10.83;65.81;98936.69;5102885;28;20059;-74
2023/04/16 00:22:20;;;;;;;11.95;5.40;;;;;;;11.01;65.16;98951.25;5109153;28;20020;-75
2023/04/16 00:24:46;;;;;;;8.38;4.95;;;;;;;11.33;64.16;98953.44;5111671;28;20039;-74
2023/04/16 00:27:11;;;;;;;7.00;3.60;;;;;;;10.83;66.07;98953.47;5100863;28;20081;-74
2023/04/16 00:29:37;;;;;;;8.13;3.20;;;;;;;10.52;67.25;98955.66;5102795;28;20023;-75
2023/04/16 00:32:02;;;;;;;8.88;3.65;;;;;;;10.66;67.00;98951.72;5110586;28;20034;-74
2023/04/16 00:34:28;;;;;;;10.60;4.50;;;;;;;10.93;66.03;98953.00;5111346;28;20027;-74
2023/04/16 00:36:53;;;;;;;12.88;4.65;;;;;;;11.00;65.46;98951.59;5109177;28;20084;-73
2023/04/16 00:39:18;;;;;;;15.52;4.55;;;;;;;11.14;65.19;98943.66;5099761;28;20024;-74
2023/04/16 00:41:44;;;;;;;12.35;5.38;;;;;;;11.01;64.90;98942.84;5091996;28;20031;-74
2023/04/16 00:44:10;;;;;;;10.60;6.20;;;;;;;10.57;66.85;98937.00;5098587;28;20031;-75
2023/04/16 00:46:36;;;;;;;17.40;8.43;;;;;;;10.77;65.96;98943.66;5091191;28;20035;-74
2023/04/16 00:49:03;;;;;;;15.82;8.50;;;;;;;10.90;65.69;98941.69;5090881;28;20495;-74
2023/04/16 00:51:29;;;;;;;17.63;7.88;;;;;;;10.86;65.82;98935.97;5091127;28;20045;-74
2023/04/16 00:53:56;;;;;;;19.02;6.63;;;;;;;10.82;66.47;98938.66;5104417;28;20517;-74
2023/04/16 00:56:23;;;;;;;10.20;5.38;;;;;;;10.44;67.33;98939.78;5104398;28;20028;-74
2023/04/16 00:58:49;;;;;;;10.65;5.00;;;;;;;10.73;67.22;98948.34;5090891;28;20021;-74
2023/04/16 01:01:15;;;;;;;16.00;5.65;;;;;;;10.41;68.02;98937.69;5090801;28;20032;-74
2023/04/16 01:03:45;;;;;;;13.35;5.82;;;;;;;10.35;69.49;98944.63;5111231;28;20102;-74
2023/04/16 01:06:11;;;;;;;13.65;5.88;;;;;;;10.15;70.55;98946.34;5092962;28;20029;-74
2023/04/16 01:08:37;;;;;;;17.63;6.32;;;;;;;9.88;72.15;98954.97;5098822;28;20058;-74
2023/04/16 01:11:03;;;;;;;17.02;4.88;;;;;;;10.27;71.30;98956.75;5091144;28;20027;-74
2023/04/16 01:13:29;;;;;;;12.65;5.28;;;;;;;10.05;71.14;98953.19;5110558;28;20027;-74
2023/04/16 01:15:55;;;;;;;9.60;5.80;;;;;;;9.98;71.74;98943.38;5111265;28;20111;-74
2023/04/16 01:18:21;;;;;;;10.75;6.15;;;;;;;10.05;71.71;98947.59;5100841;28;20036;-74
2023/04/16 01:20:48;;;;;;;17.33;5.93;;;;;;;10.31;70.64;98957.69;5092604;28;20102;-74
2023/04/16 01:23:14;;;;;;;13.85;6.78;;;;;;;10.07;71.57;98945.28;5089441;28;20024;-74
2023/04/16 01:25:39;;;;;;;9.05;5.40;;;;;;;10.28;70.66;98948.00;5091812;28;20032;-74
2023/04/16 01:28:06;;;;;;;16.55;6.60;;;;;;;10.44;70.29;98947.34;5092507;28;20088;-74
2023/04/16 01:30:31;;;;;;;12.25;6.25;;;;;;;10.38;70.06;98949.56;5110317;28;20027;-74
2023/04/16 01:32:57;;;;;;;18.38;5.57;;;;;;;10.38;70.13;98941.97;5104097;28;20406;-74
2023/04/16 01:35:25;;;;;;;13.35;6.05;;;;;;;10.41;70.19;98937.69;5090608;28;20075;-74
2023/04/16 01:37:51;;;;;;;14.00;5.72;;;;;;;10.47;70.06;98939.09;5090707;28;20085;-74
2023/04/16 01:40:17;;;;;;;12.63;7.13;;;;;;;10.22;71.82;98944.59;5091288;28;20449;-74
2023/04/16 01:42:43;;;;;;;12.27;7.13;;;;;;;10.19;72.78;98941.69;5110915;28;20110;-74
2023/04/16 01:45:09;;;;;;;20.48;8.05;;;;;;;10.48;72.24;98937.13;5093439;28;20030;-74
2023/04/16 01:47:35;;;;;;;12.63;8.68;;;;;;;10.17;72.56;98936.47;5114700;28;20035;-74
2023/04/16 01:50:03;;;;;;;13.00;8.30;;;;;;;10.06;73.83;98940.84;5104271;28;20059;-74
2023/04/16 01:52:29;;;;;;;15.30;9.30;;;;;;;10.11;74.15;98932.22;5114679;28;20355;-74
2023/04/16 01:54:54;;;;;;;14.90;9.98;;;;;;;10.45;73.52;98940.63;5092338;28;20024;-74
2023/04/16 01:57:20;;;;;;;14.98;10.68;;;;;;;10.62;71.98;98936.81;5094243;28;20426;-74
2023/04/16 01:59:45;;;;;;;21.38;12.90;;;;;;;10.79;71.51;98939.38;5093035;28;20024;-74
2023/04/16 02:02:14;;;;;;;33.92;18.55;;;;;;;10.70;71.64;98933.06;5096100;28;20034;-74
2023/04/16 02:04:40;;;;;;;21.58;10.95;;;;;;;10.32;73.08;98917.38;5092326;28;20043;-74
2023/04/16 02:07:07;;;;;;;18.67;9.85;;;;;;;10.22;74.04;98925.03;5093865;28;20028;-74
2023/04/16 02:09:37;;;;;;;20.98;10.55;;;;;;;10.17;74.68;98922.47;5103092;28;20028;-74
2023/04/16 02:12:03;;;;;;;17.88;10.93;;;;;;;9.90;75.37;98924.75;5093832;28;20127;-74
2023/04/16 02:14:29;;;;;;;17.30;9.88;;;;;;;10.13;74.57;98921.53;5093782;28;20089;-74
2023/04/16 02:16:55;;;;;;;20.40;10.10;;;;;;;10.38;73.22;98924.41;5092573;28;20020;-74
2023/04/16 02:19:20;;;;;;;20.60;13.10;;;;;;;10.45;72.93;98926.66;5104856;28;20030;-75
2023/04/16 02:21:47;;;;;;;29.35;19.17;;;;;;;10.34;73.22;98926.22;5090954;28;20035;-74
2023/04/16 02:24:12;;;;;;;28.00;16.63;;;;;;;10.34;72.83;98926.22;5076021;28;20383;-73
2023/04/16 02:26:38;;;;;;;24.05;13.23;;;;;;;10.21;72.78;98928.22;5112647;28;20034;-74
2023/04/16 02:29:03;;;;;;;23.17;13.35;;;;;;;10.30;72.24;98933.69;5094652;28;20552;-74
2023/04/16 02:31:29;;;;;;;19.90;10.68;;;;;;;9.87;73.24;98939.38;5113989;28;20032;-75
2023/04/16 02:33:55;;;;;;;13.82;9.05;;;;;;;9.91;73.12;98937.53;5112995;28;20039;-74
2023/04/16 02:36:20;;;;;;;13.43;7.25;;;;;;;9.92;72.59;98935.56;5113736;28;20474;-69
2023/04/16 02:38:46;;;;;;;19.63;8.70;;;;;;;9.71;73.82;98928.00;5093223;28;20051;-71
2023/04/16 02:41:11;;;;;;;28.33;7.30;;;;;;;9.79;73.38;98924.34;5094251;28;20024;-69
2023/04/16 02:43:37;;;;;;;12.45;6.07;;;;;;;9.62;73.96;98927.31;5113686;28;20099;-69
2023/04/16 02:46:02;;;;;;;9.88;6.00;;;;;;;9.48;74.36;98930.38;5095161;28;20406;-70
2023/04/16 02:48:28;;;;;;;11.00;7.93;;;;;;;9.12;76.17;98924.22;5094896;28;20031;-69
2023/04/16 02:50:53;;;;;;;13.52;8.18;;;;;;;9.15;76.11;98931.91;5113397;28;20019;-73
2023/04/16 02:53:19;;;;;;;14.00;8.65;;;;;;;9.29;75.32;98930.84;5113435;28;20024;-69
2023/04/16 02:55:54;;;;;;;12.52;9.18;;;;;;;9.75;74.21;98933.75;5093962;28;20039;-70
2023/04/16 02:58:21;;;;;;;14.90;8.25;;;;;;;9.62;73.78;98933.69;5098304;28;20510;-69
2023/04/16 03:00:47;;;;;;;15.77;8.10;;;;;;;9.88;73.65;98935.41;5094811;28;20027;-69
2023/04/16 03:03:13;;;;;;;15.07;8.90;;;;;;;10.01;71.82;98932.66;5095000;28;20110;-69
2023/04/16 03:05:39;;;;;;;13.57;9.15;;;;;;;10.07;71.99;98939.69;5094747;28;20032;-69
2023/04/16 03:08:05;;;;;;;20.92;10.05;;;;;;;10.15;71.33;98943.53;5094853;28;20019;-69
2023/04/16 03:10:31;;;;;;;11.10;6.72;;;;;;;10.36;71.21;98932.28;5093717;28;20131;-69
2023/04/16 03:12:56;;;;;;;13.40;7.72;;;;;;;10.35;70.28;98944.63;5093459;28;20499;-70
2023/04/16 03:15:23;;;;;;;15.50;8.05;;;;;;;10.34;70.95;98945.81;5091981;28;20024;-68
2023/04/16 03:17:48;;;;;;;10.55;5.97;;;;;;;10.47;69.78;98941.88;5094770;28;20387;-71
2023/04/16 03:20:15;;;;;;;15.60;7.82;;;;;;;10.57;69.45;98946.22;5094776;28;20016;-70
2023/04/16 03:22:41;;;;;;;13.38;7.53;;;;;;;10.66;69.02;98943.31;5113071;28;20038;-71
2023/04/16 03:25:07;;;;;;;13.18;6.78;;;;;;;10.68;69.10;98946.59;5093611;28;20494;-71
2023/04/16 03:27:33;;;;;;;17.42;8.45;;;;;;;10.61;69.22;98949.13;5112918;28;20046;-70
2023/04/16 03:29:58;;;;;;;20.85;9.43;;;;;;;10.72;68.33;98949.50;5075185;28;20392;-70
2023/04/16 03:32:24;;;;;;;18.88;11.77;;;;;;;10.61;68.73;98949.97;5074267;28;20426;-70
2023/04/16 03:34:50;;;;;;;20.42;11.93;;;;;;;10.53;69.24;98942.47;5092441;28;20027;-70
2023/04/16 03:37:15;;;;;;;18.85;11.50;;;;;;;10.56;68.77;98958.59;5074089;28;20495;-70
2023/04/16 03:39:41;;;;;;;22.13;11.55;;;;;;;10.46;68.94;98954.25;5082723;28;20016;-72
2023/04/16 03:42:06;;;;;;;17.00;11.65;;;;;;;10.52;68.89;98954.84;5092318;28;20030;-69
2023/04/16 03:44:32;;;;;;;37.70;19.85;;;;;;;10.59;69.06;98945.88;5093852;28;20030;-70
2023/04/16 03:46:58;;;;;;;30.88;17.08;;;;;;;10.56;68.42;98943.78;5107387;28;20027;-69
2023/04/16 03:49:23;;;;;;;19.80;12.70;;;;;;;10.47;68.90;98953.06;5112495;28;20185;-69
2023/04/16 03:51:49;;;;;;;20.73;14.32;;;;;;;10.24;69.15;98958.25;5111762;28;20085;-70
2023/04/16 03:54:14;;;;;;;21.83;13.18;;;;;;;10.31;69.14;98963.28;5110929;28;20032;-69
2023/04/16 03:56:40;;;;;;;39.10;16.27;;;;;;;10.48;68.98;98960.28;5112290;28;20030;-69
2023/04/16 03:59:06;;;;;;;38.10;21.02;;;;;;;10.42;69.45;98966.47;5112181;28;20060;-72
2023/04/16 04:01:31;;;;;;;27.38;16.42;;;;;;;10.21;70.27;98962.53;5112103;28;20028;-72
2023/04/16 04:03:57;;;;;;;18.58;14.15;;;;;;;10.12;70.34;98947.84;5089203;28;20027;-72
2023/04/16 04:06:24;;;;;;;16.08;9.82;;;;;;;10.10;70.59;98956.59;5098949;28;20490;-72
2023/04/16 04:08:51;;;;;;;15.15;9.07;;;;;;;9.82;71.85;98948.78;5075733;28;20031;-72
2023/04/16 04:11:18;;;;;;;15.18;9.10;;;;;;;9.51;72.84;98949.22;5111661;28;20046;-72
2023/04/16 04:13:43;;;;;;;12.38;9.25;;;;;;;9.49;73.72;98955.16;5093766;28;20019;-71
2023/04/16 04:16:09;;;;;;;14.13;8.73;;;;;;;9.67;73.63;98952.22;5093701;28;20152;-71
2023/04/16 04:18:35;;;;;;;28.35;16.77;;;;;;;9.86;72.64;98962.88;5082566;28;20475;-71
2023/04/16 04:21:05;;;;;;;21.20;9.93;;;;;;;9.97;72.53;98974.47;5091460;28;20032;-72
2023/04/16 04:23:30;;;;;;;29.45;19.45;;;;;;;10.06;72.25;98960.41;5106894;28;20450;-72
2023/04/16 04:25:56;;;;;;;28.73;17.33;;;;;;;10.20;71.09;98966.50;5111788;28;20085;-72
2023/04/16 04:28:21;;;;;;;27.08;13.85;;;;;;;10.21;70.94;98968.13;5093666;28;20072;-72
2023/04/16 04:30:46;;;;;;;17.60;9.85;;;;;;;10.10;70.90;98969.72;5093321;28;20586;-72
2023/04/16 04:33:12;;;;;;;23.50;14.48;;;;;;;10.20;70.96;98971.28;5093516;28;20084;-72
2023/04/16 04:35:37;;;;;;;46.83;26.35;;;;;;;10.30;71.34;98982.00;5089495;28;20130;-72
2023/04/16 04:38:04;;;;;;;25.02;15.50;;;;;;;10.08;73.37;98974.84;5095830;28;20031;-72
2023/04/16 04:40:31;;;;;;;20.58;13.50;;;;;;;10.21;73.42;98979.31;5092327;28;20039;-72
2023/04/16 04:42:56;;;;;;;14.48;11.32;;;;;;;10.19;73.13;98973.25;5109089;28;20442;-72
2023/04/16 04:45:24;;;;;;;20.05;12.73;;;;;;;10.12;74.18;98975.78;5107539;28;20055;-72
2023/04/16 04:47:51;;;;;;;24.90;13.27;;;;;;;10.20;73.40;98977.69;5111670;28;20076;-72
2023/04/16 04:50:17;;;;;;;16.73;10.10;;;;;;;9.94;73.79;98973.16;5111545;28;20020;-72
2023/04/16 04:52:42;;;;;;;26.95;16.58;;;;;;;9.78;73.65;98988.94;5110676;28;20034;-72
2023/04/16 04:55:08;;;;;;;23.77;13.85;;;;;;;9.47;73.67;98967.81;5092055;28;20027;-72
2023/04/16 04:57:33;;;;;;;24.40;15.80;;;;;;;9.64;74.81;98962.06;5101653;28;20106;-72
2023/04/16 04:59:59;;;;;;;35.60;19.40;;;;;;;9.83;73.47;98960.78;5078732;28;20020;-71
2023/04/16 05:02:24;;;;;;;37.20;18.92;;;;;;;9.83;73.50;98958.00;5102662;28;20032;-72
2023/04/16 05:04:50;;;;;;;36.58;23.35;;;;;;;9.78;73.85;98970.19;5102985;28;20027;-72
2023/04/16 05:07:15;;;;;;;32.40;19.42;;;;;;;10.15;73.48;98977.91;5094946;28;20042;-71
2023/04/16 05:09:41;;;;;;;26.70;17.40;;;;;;;10.32;72.50;98971.31;5078507;28;20035;-72
2023/04/16 05:12:06;;;;;;;34.60;18.67;;;;;;;10.34;72.20;98971.78;5101910;28;20443;-71
2023/04/16 05:14:34;;;;;;;32.63;18.65;;;;;;;10.44;72.11;98970.56;5093907;28;20571;-72
2023/04/16 05:17:00;;;;;;;32.85;17.95;;;;;;;10.56;71.86;98966.16;5106567;28;20498;-72
2023/04/16 05:19:26;;;;;;;26.33;15.95;;;;;;;10.56;71.51;98978.16;5091571;28;20024;-69
2023/04/16 05:21:53;;;;;;;25.27;14.93;;;;;;;10.55;72.53;98975.69;5106303;28;20519;-76
2023/04/16 05:24:19;;;;;;;22.92;13.73;;;;;;;10.60;72.68;98972.66;5095407;28;20024;-70
2023/04/16 05:26:44;;;;;;;16.98;12.32;;;;;;;10.63;72.46;98972.00;5105145;28;20031;-69
2023/04/16 05:29:10;;;;;;;17.20;11.68;;;;;;;10.51;73.42;98984.78;5098164;28;20035;-67
2023/04/16 05:31:35;;;;;;;39.53;24.65;;;;;;;10.73;73.20;98988.28;5113502;28;20032;-70
2023/04/16 05:34:01;;;;;;;31.83;22.90;;;;;;;10.91;72.52;99004.88;5110929;28;20027;-70
2023/04/16 05:36:26;;;;;;;22.70;10.77;;;;;;;10.45;73.84;99000.13;5094178;28;20119;-71
2023/04/16 05:38:52;;;;;;;22.45;12.65;;;;;;;10.46;74.41;99007.38;5105491;28;20028;-76
2023/04/16 05:41:17;;;;;;;18.10;11.80;;;;;;;10.64;73.87;99012.78;5095409;28;20032;-71
2023/04/16 05:43:43;;;;;;;15.30;11.30;;;;;;;10.70;73.25;99016.97;5103249;28;20031;-71
2023/04/16 05:46:08;;;;;;;25.90;16.02;;;;;;;10.94;72.13;99009.78;5114611;28;20034;-68
2023/04/16 05:48:34;;;;;;;73.60;38.78;;;;;;;10.64;72.09;99021.16;5103346;27;20069;-70
2023/04/16 05:51:01;;;;;;;59.55;34.28;;;;;;;10.64;72.18;99016.38;5100897;28;20028;-72
2023/04/16 05:53:26;;;;;;;33.92;19.10;;;;;;;10.50;73.33;99013.09;5086520;28;20038;-71
2023/04/16 05:55:52;;;;;;;24.48;12.40;;;;;;;10.64;72.31;99009.97;5102429;28;20475;-73
2023/04/16 05:58:17;;;;;;;20.08;13.38;;;;;;;10.70;72.71;99010.56;5090804;28;20059;-70
2023/04/16 06:00:43;;;;;;;18.63;10.88;;;;;;;10.79;71.93;99006.50;5093981;28;20024;-71
2023/04/16 06:03:08;;;;;;;18.15;10.02;;;;;;;10.56;72.35;99011.72;5114037;28;20027;-71
2023/04/16 06:05:34;;;;;;;11.35;8.20;;;;;;;10.61;72.25;99010.66;5114543;28;20032;-69
2023/04/16 06:07:59;;;;;;;22.77;10.68;;;;;;;10.80;71.95;99005.34;5095897;28;20035;-72
2023/04/16 06:10:25;;;;;;;21.90;10.85;;;;;;;10.94;70.86;99006.97;5085322;28;20039;-71
2023/04/16 06:12:50;;;;;;;17.73;9.95;;;;;;;10.86;71.33;99008.72;5113185;28;20077;-71
2023/04/16 06:15:16;;;;;;;10.98;7.47;;;;;;;10.86;71.00;99003.13;5114383;28;20023;-70
2023/04/16 06:17:41;;;;;;;13.98;8.63;;;;;;;11.05;71.61;98996.94;5095753;28;20027;-70
2023/04/16 06:20:07;;;;;;;14.68;9.57;;;;;;;11.29;70.76;98997.31;5108704;27;20024;-70
2023/04/16 06:22:32;;;;;;;32.15;17.60;;;;;;;11.51;70.25;98984.78;5113522;28;20031;-70
2023/04/16 06:24:58;;;;;;;18.98;10.55;;;;;;;11.40;68.41;98983.63;5106071;27;20016;-70
2023/04/16 06:27:23;;;;;;;14.38;6.97;;;;;;;11.51;67.58;98987.56;5092709;28;20399;-70
2023/04/16 06:29:50;;;;;;;22.10;9.88;;;;;;;11.92;67.35;98990.38;5093343;28;20016;-71
2023/04/16 06:32:16;;;;;;;35.03;18.15;;;;;;;12.21;65.45;98986.44;5085823;28;20066;-66
2023/04/16 06:34:42;;;;;;;34.25;17.95;;;;;;;12.45;64.18;98990.28;5110266;28;20058;-67
2023/04/16 06:37:07;;;;;;;18.40;8.85;;;;;;;12.97;62.71;98987.59;5095016;28;20458;-68
2023/04/16 06:39:33;;;;;;;28.63;13.38;;;;;;;12.97;60.44;98981.97;5093883;28;20047;-67
2023/04/16 06:41:58;;;;;;;19.20;6.38;;;;;;;13.48;60.04;98991.63;5090397;28;20096;-69
2023/04/16 06:44:24;;;;;;;45.47;23.65;;;;;;;14.00;58.10;98992.34;5111764;28;20030;-68
2023/04/16 06:46:49;;;;;;;88.22;42.22;;;;;;;14.12;57.23;98982.13;5108185;28;20110;-70
2023/04/16 06:49:15;;;;;;;16.90;8.57;;;;;;;14.75;56.09;98980.09;5105545;27;20340;-72
2023/04/16 06:51:41;;;;;;;37.95;18.27;;;;;;;14.90;53.80;98978.34;5103354;28;20399;-73
2023/04/16 06:54:06;;;;;;;15.30;5.55;;;;;;;15.36;54.27;98985.91;5093100;28;20444;-73
2023/04/16 06:56:32;;;;;;;14.77;5.25;;;;;;;15.32;53.65;98975.78;5075237;28;20019;-72
2023/04/16 06:58:58;;;;;;;14.52;4.10;;;;;;;15.39;53.60;98976.72;5092323;28;20024;-69
2023/04/16 07:01:23;;;;;;;7.70;3.30;;;;;;;15.39;53.28;98967.44;5091066;28;20020;-79
2023/04/16 07:03:49;;;;;;;8.40;3.17;;;;;;;15.43;53.62;98973.94;5090651;28;20019;-78
2023/04/16 07:06:15;;;;;;;12.88;4.22;;;;;;;15.66;54.67;98973.03;5091483;28;20062;-79
2023/04/16 07:08:40;;;;;;;5.93;3.58;;;;;;;15.75;53.82;98978.38;5106670;28;20060;-78
2023/04/16 07:11:05;;;;;;;13.32;4.00;;;;;;;15.95;53.40;98973.47;5092629;28;20573;-75
2023/04/16 07:13:31;;;;;;;10.80;3.03;;;;;;;16.07;51.95;98978.84;5102046;28;20114;-73
2023/04/16 07:15:56;;;;;;;6.38;3.63;;;;;;;15.95;52.58;98970.63;5108578;28;20023;-75
2023/04/16 07:18:22;;;;;;;10.50;3.63;;;;;;;16.11;52.62;98979.69;5109651;28;20019;-70
2023/04/16 07:20:47;;;;;;;12.85;4.97;;;;;;;16.28;52.79;98978.28;5080873;28;20035;-70
2023/04/16 07:23:13;;;;;;;15.98;7.78;;;;;;;16.25;52.51;98978.22;5077661;28;20066;-67
2023/04/16 07:25:39;;;;;;;32.28;11.55;;;;;;;16.20;53.13;98982.22;5104688;27;20051;-66
2023/04/16 07:28:04;;;;;;;50.47;18.20;;;;;;;16.45;52.28;98978.06;5112678;28;20019;-65
2023/04/16 07:30:33;;;;;;;14.73;5.13;;;;;;;16.41;51.60;98986.47;5103392;28;20386;-68
2023/04/16 07:33:00;;;;;;;10.32;5.05;;;;;;;16.39;51.40;98977.59;5099576;28;20023;-70
2023/04/16 07:35:25;;;;;;;9.00;4.65;;;;;;;16.24;50.90;98983.09;5111443;28;20096;-71
2023/04/16 07:37:51;;;;;;;17.30;4.95;;;;;;;15.75;52.10;98973.56;5100630;28;20567;-71
2023/04/16 07:40:16;;;;;;;16.42;4.97;;;;;;;15.66;52.98;98987.13;5089544;28;20028;-70
2023/04/16 07:42:42;;;;;;;10.02;3.55;;;;;;;15.61;52.35;98984.66;5108196;28;20085;-69
2023/04/16 07:45:08;;;;;;;8.73;5.10;;;;;;;15.71;53.06;98967.09;5080253;28;20035;-70
2023/04/16 07:47:33;;;;;;;15.10;8.90;;;;;;;15.82;53.76;98970.84;5101461;27;20148;-70
2023/04/16 07:49:59;;;;;;;14.60;4.50;;;;;;;15.82;52.48;98968.03;5110899;28;20064;-71
2023/04/16 07:52:25;;;;;;;9.02;4.53;;;;;;;15.84;52.76;98970.47;5087609;28;20028;-72
2023/04/16 07:54:51;;;;;;;10.63;4.38;;;;;;;15.83;53.52;98955.56;5091797;28;20431;-72
2023/04/16 07:57:16;;;;;;;33.55;18.67;;;;;;;16.03;53.76;98961.03;5089596;28;20042;-73
2023/04/16 07:59:42;;;;;;;50.88;30.52;;;;;;;16.03;53.42;98963.06;5084662;28;20034;-74
2023/04/16 08:02:12;;;;;;;16.85;6.18;;;;;;;15.95;53.21;98945.25;5097853;28;20031;-75
2023/04/16 08:04:37;;;;;;;19.40;8.23;;;;;;;15.76;52.97;98947.00;5101071;27;20031;-74
2023/04/16 08:07:03;;;;;;;23.00;8.90;;;;;;;16.11;53.13;98953.50;5094703;28;20067;-74
2023/04/16 08:09:28;;;;;;;26.17;6.82;;;;;;;16.05;52.61;98947.41;5092405;27;20068;-72
2023/04/16 08:11:54;;;;;;;31.38;12.52;;;;;;;16.50;52.00;98957.94;5090550;27;20040;-69
2023/04/16 08:14:20;;;;;;;28.90;13.18;;;;;;;16.77;50.64;98950.13;5092107;28;20490;-71
2023/04/16 08:16:46;;;;;;;12.77;5.75;;;;;;;16.62;51.64;98935.06;5091015;28;20039;-71
2023/04/16 08:19:11;;;;;;;39.70;12.65;;;;;;;16.54;52.11;98933.38;5110459;28;20502;-70
2023/04/16 08:21:37;;;;;;;426.23;230.90;;;;;;;16.63;52.36;98959.25;5109199;28;20481;-70
2023/04/16 08:24:03;;;;;;;82.28;43.00;;;;;;;16.63;51.44;98953.63;5101339;28;20024;-72
2023/04/16 08:26:28;;;;;;;17.40;6.05;;;;;;;16.23;52.21;98953.25;5104487;28;20035;-75
2023/04/16 08:28:54;;;;;;;385.33;212.45;;;;;;;16.15;52.83;98957.16;5087149;28;20023;-76
2023/04/16 08:31:19;;;;;;;275.40;155.60;;;;;;;16.48;51.93;98947.03;5107503;28;20039;-73
2023/04/16 08:33:45;;;;;;;79.55;42.97;;;;;;;16.77;51.73;98944.47;5109543;28;20031;-76
2023/04/16 08:36:16;;;;;;;95.68;47.80;;;;;;;17.09;50.75;98931.84;5089092;28;20467;-76
2023/04/16 08:38:41;;;;;;;14.27;6.13;;;;;;;17.34;50.37;98942.50;5105656;28;20027;-70
2023/04/16 08:41:11;;;;;;;9.77;4.70;;;;;;;17.39;50.12;98925.19;5101020;28;20027;-70
2023/04/16 08:43:39;;;;;;;9.00;4.35;;;;;;;17.61;48.31;98926.09;5110873;28;20031;-71
2023/04/16 08:46:06;;;;;;;233.80;131.43;;;;;;;17.10;49.63;98933.47;5088194;28;20396;-78
2023/04/16 08:48:33;;;;;;;627.72;360.58;;;;;;;17.69;48.58;98929.78;5087854;28;20076;-72
2023/04/16 08:51:00;;;;;;;33.53;17.25;;;;;;;18.19;48.22;98931.19;5107417;28;20054;-68
2023/04/16 08:53:47;;;;;;;7.68;4.68;;;;;;;18.53;46.29;98930.84;5109312;28;20038;-66
2023/04/16 08:56:16;;;;;;;15.73;7.95;;;;;;;18.63;46.05;98930.06;5108132;27;20039;-69
2023/04/16 08:58:42;;;;;;;27.50;13.65;;;;;;;18.69;47.23;98924.81;5116719;28;20055;-77
2023/04/16 09:01:09;;;;;;;12.15;4.60;;;;;;;18.85;45.47;98921.59;5109455;28;20133;-70
2023/04/16 09:03:35;;;;;;;15.20;6.50;;;;;;;19.29;45.84;98916.69;5082237;28;20443;-71
2023/04/16 09:06:03;;;;;;;8.45;3.33;;;;;;;19.43;43.92;98906.53;5088296;28;20134;-73
2023/04/16 09:08:28;;;;;;;9.50;5.50;;;;;;;19.40;44.13;98899.66;5097479;28;20515;-68
2023/04/16 09:10:58;;;;;;;10.13;4.53;;;;;;;19.22;44.18;98906.19;5111797;27;20031;-69
2023/04/16 09:13:24;;;;;;;15.30;6.63;;;;;;;19.49;43.62;98894.38;5098430;27;20036;-68
2023/04/16 09:15:53;;;;;;;13.90;3.78;;;;;;;19.91;43.24;98882.47;5104115;28;20028;-69
2023/04/16 09:18:20;;;;;;;6.88;3.42;;;;;;;19.95;42.40;98886.09;5098277;28;20062;-71
2023/04/16 09:20:47;;;;;;;9.98;2.78;;;;;;;19.83;41.61;98890.16;5096456;28;20015;-70
2023/04/16 09:23:13;;;;;;;6.53;2.92;;;;;;;19.77;42.73;98891.84;5084598;28;20111;-69
2023/04/16 09:25:38;;;;;;;7.18;3.28;;;;;;;19.78;42.65;98890.63;5108161;27;20106;-70
2023/04/16 09:28:04;;;;;;;8.02;3.20;;;;;;;19.74;41.32;98882.13;5101855;27;20433;-72
2023/04/16 09:30:30;;;;;;;7.07;3.10;;;;;;;19.66;42.93;98869.16;5100706;27;20102;-69
2023/04/16 09:33:21;;;;;;;7.60;2.88;;;;;;;19.55;42.84;98866.38;5114347;27;20035;-68
2023/04/16 09:35:51;;;;;;;9.55;4.00;;;;;;;19.85;42.78;98852.88;5095548;28;20032;-68
2023/04/16 09:38:18;;;;;;;16.58;4.28;;;;;;;20.24;42.84;98868.09;5092794;28;20545;-71
2023/04/16 09:40:46;;;;;;;8.27;2.42;;;;;;;19.95;39.06;98854.88;5112812;28;20023;-70
2023/04/16 09:43:13;;;;;;;5.18;2.63;;;;;;;19.67;38.79;98856.63;5097600;28;20391;-71
2023/04/16 09:45:52;;;;;;;5.18;2.47;;;;;;;20.14;39.97;98856.38;5106471;27;20701;-70
2023/04/16 09:48:31;;;;;;;5.22;2.90;;;;;;;20.26;40.46;98845.78;5095967;27;20028;-69
2023/04/16 09:50:58;;;;;;;13.00;4.28;;;;;;;19.83;39.78;98843.97;5096976;27;20802;-71
2023/04/16 09:53:28;;;;;;;7.75;3.03;;;;;;;20.56;39.64;98844.31;5112766;27;20095;-71
2023/04/16 09:56:02;;;;;;;11.32;3.63;;;;;;;20.52;37.44;98843.53;5113795;27;20073;-73
2023/04/16 09:58:28;;;;;;;7.47;2.72;;;;;;;20.66;37.53;98839.78;5099721;27;20059;-70
2023/04/16 10:01:10;;;;;;;8.10;2.72;;;;;;;20.50;37.85;98843.94;5115017;28;20788;-70
2023/04/16 10:03:38;;;;;;;6.18;2.97;;;;;;;20.55;37.70;98848.38;5116039;28;20035;-70
2023/04/16 10:06:13;;;;;;;5.72;2.45;;;;;;;20.50;36.57;98846.00;5111337;28;20023;-74
2023/04/16 10:08:43;;;;;;;9.40;3.78;;;;;;;20.50;37.05;98837.47;5106232;28;20024;-71
2023/04/16 10:11:10;;;;;;;8.70;2.78;;;;;;;20.50;37.04;98848.84;5116953;27;20118;-69
2023/04/16 10:13:35;;;;;;;5.10;2.20;;;;;;;20.51;35.86;98834.19;5120302;27;20525;-70
2023/04/16 10:16:02;;;;;;;9.50;3.50;;;;;;;20.44;37.50;98822.91;5093899;28;20046;-70
2023/04/16 10:18:28;;;;;;;5.68;2.10;;;;;;;20.24;34.13;98831.19;5089274;28;20099;-71
2023/04/16 10:20:54;;;;;;;4.80;2.00;;;;;;;20.72;35.43;98827.53;5081187;28;20031;-68
2023/04/16 10:23:21;;;;;;;7.47;2.80;;;;;;;20.93;35.62;98824.94;5093296;28;20559;-72
2023/04/16 10:25:48;;;;;;;6.22;2.50;;;;;;;20.79;35.23;98825.84;5091448;28;20039;-74
2023/04/16 10:28:15;;;;;;;6.43;2.83;;;;;;;20.82;35.52;98831.53;5083875;28;20031;-73
2023/04/16 10:30:47;;;;;;;4.93;2.35;;;;;;;20.94;35.82;98820.88;5092089;28;20027;-69
2023/04/16 10:33:13;;;;;;;7.40;3.00;;;;;;;21.07;35.74;98829.69;5093707;28;20057;-69
2023/04/16 10:35:39;;;;;;;5.85;1.88;;;;;;;20.97;35.60;98828.53;5101832;28;20090;-72
2023/04/16 10:38:21;;;;;;;6.10;1.83;;;;;;;21.04;35.25;98832.13;5103779;28;20027;-73
2023/04/16 10:40:46;;;;;;;5.40;3.80;;;;;;;21.05;36.31;98821.56;5105918;28;20587;-70
2023/04/16 10:43:18;;;;;;;15.60;4.30;;;;;;;21.10;35.68;98823.94;5076311;28;20118;-72
2023/04/16 10:45:43;;;;;;;9.60;2.65;;;;;;;21.12;35.42;98830.03;5103061;28;20062;-75
2023/04/16 10:48:10;;;;;;;5.05;2.28;;;;;;;21.26;35.85;98831.09;5106349;27;20111;-72
2023/04/16 10:50:36;;;;;;;6.38;2.40;;;;;;;21.24;35.22;98830.72;5085211;28;20773;-71
2023/04/16 10:53:18;;;;;;;5.55;2.08;;;;;;;21.04;35.60;98837.00;5096819;27;20390;-70
2023/04/16 10:55:56;;;;;;;10.60;3.00;;;;;;;20.92;35.71;98837.53;5102947;27;20036;-69
2023/04/16 10:58:33;;;;;;;7.45;2.10;;;;;;;21.13;35.52;98825.94;5111655;28;20039;-71
2023/04/16 11:01:00;;;;;;;4.63;2.40;;;;;;;21.30;35.33;98803.41;5109460;27;20067;-74
2023/04/16 11:03:30;;;;;;;7.55;2.63;;;;;;;20.66;36.03;98826.38;5083883;28;20146;-71
2023/04/16 11:06:26;;;;;;;8.50;3.08;;;;;;;20.22;37.61;98825.13;5090809;28;20039;-70
2023/04/16 11:08:52;;;;;;;4.97;2.22;;;;;;;20.80;37.71;98822.59;5091007;28;20439;-70
2023/04/16 11:11:18;;;;;;;3.70;2.30;;;;;;;20.95;36.43;98823.28;5100083;28;20392;-69
2023/04/16 11:13:45;;;;;;;5.90;2.10;;;;;;;20.98;36.51;98824.47;5105748;28;20062;-69
2023/04/16 11:16:12;;;;;;;5.63;2.30;;;;;;;21.19;37.17;98812.06;5093399;28;20102;-71
2023/04/16 11:18:41;;;;;;;6.03;2.40;;;;;;;21.14;37.27;98810.50;5093798;28;20023;-72
2023/04/16 11:21:08;;;;;;;6.43;3.03;;;;;;;21.44;35.80;98813.81;5110670;28;20397;-75